ENHM

Heimdal Oilp

Heimdal Oilp, Norway
METAR ENHM 162350Z AUTO 35004KT 320V070 9999NDV NCD 04/00 Q1015 W08/S4
Observed Flight Rules
Dec-16 @ 23:50 UTC (24 minutes ago)
Wind Clouds
350° at 4 knots
  • Clear skies
Temperatures Readings
Current 4°C / 39°F
Dewpoint 0°C / 32°F
Humidity 75%
Altimeter 29.97" Hg
Pressure 1015 hPa
Elevation 10
METAR ENHM 162350Z AUTO 35004KT 320V070 9999NDV NCD 04/00 Q1015 W08/S4
Observed Flight Rules
Dec-16 @ 23:50 UTC
(24 minutes ago)
Wind
350° at 4 knots
Clouds
  • Clear skies
Temperature Dewpoint
4°C / 39°F 0°C / 32°F
Humidity Altimeter Pressure
75% 29.97" Hg 1015 hPa